ADDS METAR Data INFO
IDs: Format: Raw Decoded Include TAF

Data at: 0702 UTC 19 Oct 2017

KMLT 190653Z AUTO 00000KT 10SM CLR 01/00 A3020 RMK AO2 SLP233 T00110000 TSNO
KMLT 190553Z AUTO 00000KT 10SM CLR 02/01 A3021 RMK AO2 SLP237 T00170011 10072 20011 58003 TSNO
KMLT 190453Z AUTO 00000KT 10SM CLR 02/01 A3022 RMK AO2 SLP240 T00220011 401780022 TSNO
KMLT 190353Z AUTO 30003KT 10SM CLR 03/01 A3022 RMK AO2 SLP239 T00280011 TSNO
KMLT 190253Z AUTO 00000KT 10SM CLR 04/02 A3022 RMK AO2 SLP240 T00390017 50003 TSNO
KMLT 190153Z AUTO 00000KT 10SM CLR 04/02 A3023 RMK AO2 SLP243 T00440017 TSNO
KMLT 190053Z AUTO 00000KT 10SM CLR 06/01 A3021 RMK AO2 SLP237 T00560011 TSNO
KMLT 182353Z AUTO 00000KT 10SM CLR 07/01 A3021 RMK AO2 SLP238 T00720006 10178 20072 51020 TSNO
KMLT 182253Z AUTO 10003KT 10SM CLR 09/M01 A3019 RMK AO2 SLP230 T00891006 TSNO
KMLT 182153Z AUTO 00000KT 10SM CLR 11/M01 A3017 RMK AO2 SLP223 T01111011 TSNO
KMLT 182053Z AUTO VRB04KT 10SM CLR 16/M06 A3015 RMK AO2 SLP215 T01611056 51011 TSNO
KMLT 181953Z AUTO 30012G20KT 10SM CLR 17/M08 A3014 RMK AO2 PK WND 29026/1911 SLP212 T01721083 TSNO
KMLT 181853Z AUTO 29012G22KT 10SM CLR 17/M06 A3013 RMK AO2 SLP209 T01721061 TSNO
KMLT 181753Z AUTO 31015G21KT 10SM CLR 17/M04 A3012 RMK AO2 SLP204 T01721044 10172 20033 50005 TSNO
KMLT 181653Z AUTO 31014G20KT 10SM CLR 17/M03 A3013 RMK AO2 SLP208 T01671033 TSNO
KMLT 181553Z AUTO VRB06G19KT 10SM CLR 16/M01 A3013 RMK AO2 PK WND 31030/1510 SLP209 T01561006 TSNO
KMLT 181453Z AUTO 29012G22KT 10SM CLR 14/03 A3010 RMK AO2 SLP199 T01440028 51008 TSNO
KMLT 181353Z AUTO 29012G17KT 10SM FEW040 14/06 A3010 RMK AO2 SLP199 T01390061 TSNO
KMLT 181253Z AUTO 09003KT 10SM CLR 07/03 A3010 RMK AO2 SLP201 T00720033 TSNO
KMLT 181153Z AUTO 00000KT 10SM FEW037 FEW047 03/02 A3007 RMK AO2 SLP192 T00330022 10067 20022 53013 TSNO
KMLT 181053Z AUTO 00000KT 10SM FEW039 04/03 A3005 RMK AO2 SLP184 T00390028 TSNO
KMLT 180953Z AUTO 00000KT 10SM CLR 05/03 A3004 RMK AO2 SLP178 T00500028 TSNO
KMLT 180853Z AUTO 00000KT 10SM CLR 06/03 A3004 RMK AO2 SLP178 T00610028 55002 TSNO
KMLT 180753Z AUTO 00000KT 10SM CLR 06/03 A3003 RMK AO2 SLP176 T00560028 TSNO
KMLT 180653Z AUTO 10005KT 10SM CLR 06/02 A3003 RMK AO2 SLP177 T00560022 TSNO
KMLT 180553Z AUTO 00000KT 10SM CLR 07/02 A3004 RMK AO2 SLP180 T00670022 10083 20061 56020 TSNO
KMLT 180453Z AUTO VRB03KT 10SM BKN085 07/02 A3005 RMK AO2 SLP184 T00670022 401171022 TSNO
KMLT 180353Z AUTO VRB04KT 10SM BKN055 OVC075 07/01 A3008 RMK AO2 SLP194 T00720011 TSNO
KMLT 180253Z AUTO 00000KT 10SM OVC070 07/01 A3010 RMK AO2 SLP200 T00720006 50001 TSNO
KMLT 180153Z AUTO VRB06KT 10SM OVC080 08/00 A3011 RMK AO2 SLP203 T00780000 TSNO
KMLT 180053Z AUTO VRB04KT 10SM OVC080 08/00 A3010 RMK AO2 SLP200 T00780000 TSNO
KMLT 172353Z AUTO VRB03KT 10SM FEW090 08/M01 A3010 RMK AO2 SLP199 T00781006 10117 20072 56002 TSNO
KMLT 172253Z AUTO VRB03KT 10SM CLR 08/01 A3010 RMK AO2 SLP201 T00780006 TSNO
KMLT 172153Z AUTO 00000KT 10SM OVC070 09/01 A3010 RMK AO2 SLP200 T00940011 TSNO
KMLT 172053Z AUTO 21003KT 10SM OVC080 11/M01 A3010 RMK AO2 SLP202 T01111006 56010 TSNO
KMLT 171953Z AUTO 23005KT 10SM FEW090 12/M01 A3011 RMK AO2 SLP205 T01171011 TSNO